Time;durP1;ratioP1;P1;durP2;ratioP2;P2;SDS_P1;SDS_P2;PMS_P1;PMS_P2;Temp;Humidity;BMP_temperature;BMP_pressure;BME280_temperature;BME280_humidity;BME280_pressure;Samples;Min_cycle;Max_cycle;Signal;HPM_P1;HPM_P2
2023/03/13 00:00:14;;;;;;;8.50;7.85;;;;;;;;;;4190610;28;20052;-59
2023/03/13 00:02:34;;;;;;;8.57;8.27;;;;;;;;;;4189788;28;20060;-58
2023/03/13 00:04:54;;;;;;;8.73;8.05;;;;;;;;;;4188049;28;20060;-59
2023/03/13 00:07:14;;;;;;;8.48;8.10;;;;;;;;;;4192327;28;20043;-59
2023/03/13 00:09:35;;;;;;;8.88;8.07;;;;;;;;;;4191085;28;20047;-58
2023/03/13 00:11:55;;;;;;;8.68;8.35;;;;;;;;;;4190599;28;20155;-58
2023/03/13 00:14:15;;;;;;;9.65;8.70;;;;;;;;;;4190126;28;20044;-59
2023/03/13 00:16:36;;;;;;;8.60;7.88;;;;;;;;;;4179427;28;20294;-59
2023/03/13 00:19:08;;;;;;;6.65;6.35;;;;;;;;;;4189160;28;20084;-58
2023/03/13 00:21:30;;;;;;;7.47;7.00;;;;;;;;;;4190273;28;20319;-58
2023/03/13 00:23:50;;;;;;;8.95;8.43;;;;;;;;;;4190094;28;20048;-58
2023/03/13 00:26:12;;;;;;;10.27;9.43;;;;;;;;;;4191017;28;20055;-58
2023/03/13 00:28:33;;;;;;;11.15;10.27;;;;;;;;;;4190124;28;20248;-58
2023/03/13 00:31:00;;;;;;;10.05;9.23;;;;;;;;;;4191070;28;20044;-58
2023/03/13 00:33:20;;;;;;;9.57;9.07;;;;;;;;;;4191087;28;20048;-59
2023/03/13 00:35:40;;;;;;;11.32;8.63;;;;;;;;;;4189980;28;20052;-59
2023/03/13 00:38:00;;;;;;;9.13;8.45;;;;;;;;;;4190698;28;20274;-58
2023/03/13 00:40:21;;;;;;;7.10;6.60;;;;;;;;;;4188091;28;20051;-58
2023/03/13 00:42:41;;;;;;;8.13;7.70;;;;;;;;;;4190893;28;20047;-58
2023/03/13 00:45:01;;;;;;;9.00;8.00;;;;;;;;;;4190045;28;20109;-58
2023/03/13 00:47:21;;;;;;;7.82;7.32;;;;;;;;;;4194923;28;20047;-58
2023/03/13 00:49:41;;;;;;;7.32;6.97;;;;;;;;;;4192653;28;20036;-58
2023/03/13 00:52:01;;;;;;;8.70;8.25;;;;;;;;;;4194632;28;20052;-58
2023/03/13 00:54:21;;;;;;;7.05;6.65;;;;;;;;;;4193523;28;20071;-58
2023/03/13 00:56:42;;;;;;;9.20;8.38;;;;;;;;;;4193866;28;20044;-59
2023/03/13 00:59:02;;;;;;;9.07;8.38;;;;;;;;;;4191557;28;20244;-59
2023/03/13 01:01:22;;;;;;;11.40;10.43;;;;;;;;;;4191721;28;20052;-58
2023/03/13 01:03:43;;;;;;;8.70;8.18;;;;;;;;;;4191423;28;20055;-58
2023/03/13 01:06:06;;;;;;;8.18;7.68;;;;;;;;;;4192287;28;20052;-58
2023/03/13 01:08:26;;;;;;;8.27;7.87;;;;;;;;;;4192777;28;20111;-58
2023/03/13 01:10:46;;;;;;;8.90;8.32;;;;;;;;;;4192639;28;20052;-58
2023/03/13 01:13:07;;;;;;;8.60;8.18;;;;;;;;;;4192497;28;20048;-58
2023/03/13 01:15:27;;;;;;;8.27;7.78;;;;;;;;;;4192412;28;20405;-58
2023/03/13 01:17:47;;;;;;;8.50;7.97;;;;;;;;;;4193026;28;20423;-58
2023/03/13 01:20:07;;;;;;;6.82;6.25;;;;;;;;;;4192262;28;20231;-58
2023/03/13 01:22:28;;;;;;;7.28;7.07;;;;;;;;;;4193532;28;20150;-58
2023/03/13 01:24:51;;;;;;;8.75;7.47;;;;;;;;;;4192478;28;20223;-58
2023/03/13 01:27:11;;;;;;;11.63;9.95;;;;;;;;;;4192330;28;20048;-58
2023/03/13 01:29:40;;;;;;;8.82;8.43;;;;;;;;;;4193326;28;20401;-58
2023/03/13 01:32:01;;;;;;;9.70;8.95;;;;;;;;;;4193556;28;20271;-58
2023/03/13 01:34:21;;;;;;;8.60;7.95;;;;;;;;;;4192129;28;20044;-58
2023/03/13 01:36:42;;;;;;;8.57;8.10;;;;;;;;;;4192563;28;20394;-58
2023/03/13 01:39:03;;;;;;;9.00;8.23;;;;;;;;;;4193474;28;20048;-58
2023/03/13 01:41:23;;;;;;;9.63;8.93;;;;;;;;;;4193712;28;20051;-58
2023/03/13 01:43:44;;;;;;;8.27;7.60;;;;;;;;;;4191894;28;20235;-58
2023/03/13 01:46:04;;;;;;;10.95;9.32;;;;;;;;;;4191990;28;20058;-58
2023/03/13 01:48:48;;;;;;;7.63;7.18;;;;;;;;;;4193547;28;20044;-59
2023/03/13 01:51:08;;;;;;;;;;;;;;;;;;4192084;28;20058;-58
2023/03/13 01:53:30;;;;;;;9.73;8.82;;;;;;;;;;4191830;28;19962;-59
2023/03/13 01:55:52;;;;;;;8.55;7.82;;;;;;;;;;4193324;28;20052;-58
2023/03/13 01:58:12;;;;;;;7.75;7.20;;;;;;;;;;4191641;28;20327;-58
2023/03/13 02:00:34;;;;;;;6.90;6.70;;;;;;;;;;4193680;28;20056;-58
2023/03/13 02:02:56;;;;;;;6.65;6.35;;;;;;;;;;4192001;28;20355;-58
2023/03/13 02:05:20;;;;;;;6.68;6.43;;;;;;;;;;4192265;28;20067;-58
2023/03/13 02:07:41;;;;;;;8.68;8.18;;;;;;;;;;4193424;28;20083;-59
2023/03/13 02:10:01;;;;;;;8.52;8.00;;;;;;;;;;4192414;28;20048;-58
2023/03/13 02:12:35;;;;;;;10.07;9.55;;;;;;;;;;4188947;28;20083;-58
2023/03/13 02:14:57;;;;;;;8.25;7.55;;;;;;;;;;4192575;28;20047;-58
2023/03/13 02:17:17;;;;;;;7.68;7.30;;;;;;;;;;4195337;28;20117;-58
2023/03/13 02:19:43;;;;;;;8.05;7.70;;;;;;;;;;4193862;28;20047;-58
2023/03/13 02:22:22;;;;;;;9.07;8.57;;;;;;;;;;4192190;28;20100;-58
2023/03/13 02:24:45;;;;;;;8.50;7.80;;;;;;;;;;4192530;28;20393;-58
2023/03/13 02:27:06;;;;;;;9.32;8.52;;;;;;;;;;4190821;28;20113;-58
2023/03/13 02:29:26;;;;;;;9.20;8.50;;;;;;;;;;4188348;28;20384;-58
2023/03/13 02:31:47;;;;;;;10.30;9.77;;;;;;;;;;4190359;28;20264;-58
2023/03/13 02:34:07;;;;;;;8.82;8.32;;;;;;;;;;4191305;28;20367;-58
2023/03/13 02:36:29;;;;;;;8.95;8.15;;;;;;;;;;4190851;28;20070;-59
2023/03/13 02:38:54;;;;;;;9.45;8.75;;;;;;;;;;4189947;28;20454;-58
2023/03/13 02:41:15;;;;;;;11.07;10.25;;;;;;;;;;4191251;28;20086;-58
2023/03/13 02:43:36;;;;;;;9.68;8.98;;;;;;;;;;4190247;28;20040;-58
2023/03/13 02:46:04;;;;;;;8.63;8.23;;;;;;;;;;4191480;28;20068;-58
2023/03/13 02:48:32;;;;;;;7.90;7.35;;;;;;;;;;4191936;28;20067;-58
2023/03/13 02:50:52;;;;;;;7.57;7.15;;;;;;;;;;4190121;28;20108;-58
2023/03/13 02:53:12;;;;;;;7.75;7.30;;;;;;;;;;4192633;28;20112;-58
2023/03/13 02:55:40;;;;;;;7.13;6.72;;;;;;;;;;4190684;28;20131;-58
2023/03/13 02:58:00;;;;;;;7.57;7.10;;;;;;;;;;4190245;28;20064;-58
2023/03/13 03:00:25;;;;;;;8.77;8.27;;;;;;;;;;4192934;28;20078;-58
2023/03/13 03:02:45;;;;;;;8.93;8.25;;;;;;;;;;4193214;28;20047;-58
2023/03/13 03:05:06;;;;;;;8.90;8.13;;;;;;;;;;4190647;28;20236;-58
2023/03/13 03:07:26;;;;;;;8.63;8.23;;;;;;;;;;4191479;28;20100;-58
2023/03/13 03:09:46;;;;;;;10.23;9.57;;;;;;;;;;4192705;28;20079;-58
2023/03/13 03:12:06;;;;;;;7.78;7.25;;;;;;;;;;4192239;28;20107;-58
2023/03/13 03:14:47;;;;;;;8.55;8.13;;;;;;;;;;4191281;28;20048;-58
2023/03/13 03:17:07;;;;;;;10.55;10.02;;;;;;;;;;4142659;28;20245;-58
2023/03/13 03:19:27;;;;;;;9.82;8.75;;;;;;;;;;4142241;28;20379;-58
2023/03/13 03:21:48;;;;;;;8.55;8.05;;;;;;;;;;4137999;28;20053;-58
2023/03/13 03:24:08;;;;;;;8.95;8.55;;;;;;;;;;4141364;28;20118;-58
2023/03/13 03:26:28;;;;;;;9.00;8.60;;;;;;;;;;4142321;28;20109;-58
2023/03/13 03:28:48;;;;;;;9.90;9.07;;;;;;;;;;4140799;28;20109;-58
2023/03/13 03:31:10;;;;;;;8.45;8.13;;;;;;;;;;4140077;28;20069;-58
2023/03/13 03:33:30;;;;;;;9.52;7.82;;;;;;;;;;4141106;28;20073;-58
2023/03/13 03:35:50;;;;;;;7.68;7.15;;;;;;;;;;4143499;28;20081;-58
2023/03/13 03:38:10;;;;;;;9.10;8.73;;;;;;;;;;4138154;28;20264;-58
2023/03/13 03:40:31;;;;;;;8.45;8.05;;;;;;;;;;4139308;28;20048;-58
2023/03/13 03:42:51;;;;;;;8.38;7.72;;;;;;;;;;4141218;28;20049;-58
2023/03/13 03:45:11;;;;;;;12.32;8.02;;;;;;;;;;4139579;28;20057;-58
2023/03/13 03:47:31;;;;;;;8.13;7.72;;;;;;;;;;4141402;28;20060;-58
2023/03/13 03:49:51;;;;;;;7.75;7.35;;;;;;;;;;4138807;28;20141;-58
2023/03/13 03:52:12;;;;;;;9.07;8.50;;;;;;;;;;4139217;28;20050;-58
2023/03/13 03:54:32;;;;;;;8.07;7.78;;;;;;;;;;4174723;28;20083;-58
2023/03/13 03:56:52;;;;;;;9.00;8.48;;;;;;;;;;4189997;28;20048;-58
2023/03/13 03:59:12;;;;;;;6.97;6.60;;;;;;;;;;4190230;28;20059;-58
2023/03/13 04:01:33;;;;;;;10.00;9.10;;;;;;;;;;4190859;28;20271;-58
2023/03/13 04:03:53;;;;;;;8.05;7.65;;;;;;;;;;4190400;28;20040;-58
2023/03/13 04:06:13;;;;;;;9.00;8.25;;;;;;;;;;4190284;28;20063;-58
2023/03/13 04:08:33;;;;;;;8.93;8.48;;;;;;;;;;4190818;28;20290;-58
2023/03/13 04:10:53;;;;;;;10.80;8.25;;;;;;;;;;4192606;28;20044;-58
2023/03/13 04:13:14;;;;;;;8.68;8.13;;;;;;;;;;4191587;28;20398;-58
2023/03/13 04:15:34;;;;;;;9.95;9.38;;;;;;;;;;4190989;28;20048;-58
2023/03/13 04:17:54;;;;;;;10.00;9.20;;;;;;;;;;4190922;28;20051;-58
2023/03/13 04:20:14;;;;;;;9.05;8.20;;;;;;;;;;4192598;28;20036;-58
2023/03/13 04:22:35;;;;;;;11.35;10.48;;;;;;;;;;4196832;28;20118;-58
2023/03/13 04:24:55;;;;;;;9.30;8.90;;;;;;;;;;4196023;28;20040;-58
2023/03/13 04:27:15;;;;;;;8.15;7.78;;;;;;;;;;4198014;28;20047;-58
2023/03/13 04:29:35;;;;;;;8.43;7.90;;;;;;;;;;4198156;28;20334;-58
2023/03/13 04:31:56;;;;;;;8.25;7.75;;;;;;;;;;4194821;28;20048;-58
2023/03/13 04:34:16;;;;;;;9.02;8.40;;;;;;;;;;4195746;28;20055;-58
2023/03/13 04:36:36;;;;;;;9.05;8.75;;;;;;;;;;4195276;28;20055;-58
2023/03/13 04:38:57;;;;;;;9.40;8.90;;;;;;;;;;4195003;28;20051;-58
2023/03/13 04:41:17;;;;;;;9.10;8.43;;;;;;;;;;4196336;28;20043;-58
2023/03/13 04:43:37;;;;;;;8.77;7.97;;;;;;;;;;4196525;28;20274;-58
2023/03/13 04:45:57;;;;;;;10.38;9.60;;;;;;;;;;4194369;28;20044;-58
2023/03/13 04:48:18;;;;;;;9.07;8.25;;;;;;;;;;4195495;28;20044;-58
2023/03/13 04:50:38;;;;;;;8.10;7.60;;;;;;;;;;4196978;28;20047;-58
2023/03/13 04:52:58;;;;;;;9.18;8.88;;;;;;;;;;4195112;28;20396;-58
2023/03/13 04:55:18;;;;;;;8.38;7.60;;;;;;;;;;4196489;28;20040;-58
2023/03/13 04:57:39;;;;;;;13.07;11.98;;;;;;;;;;4194683;28;20273;-58
2023/03/13 04:59:59;;;;;;;14.25;12.90;;;;;;;;;;4195956;28;20071;-58
2023/03/13 05:02:19;;;;;;;12.35;11.45;;;;;;;;;;4195419;28;20281;-58
2023/03/13 05:04:40;;;;;;;9.93;9.23;;;;;;;;;;4196331;28;20054;-58
2023/03/13 05:07:00;;;;;;;8.95;8.38;;;;;;;;;;4194608;28;20044;-58
2023/03/13 05:09:20;;;;;;;9.48;8.80;;;;;;;;;;4196070;28;20087;-58
2023/03/13 05:11:41;;;;;;;8.93;8.25;;;;;;;;;;4194970;28;20102;-58
2023/03/13 05:14:01;;;;;;;8.38;7.95;;;;;;;;;;4195010;28;20052;-58
2023/03/13 05:16:21;;;;;;;8.18;7.55;;;;;;;;;;4194616;28;20108;-58
2023/03/13 05:18:41;;;;;;;9.55;8.63;;;;;;;;;;4204163;28;20101;-58
2023/03/13 05:21:02;;;;;;;10.93;10.32;;;;;;;;;;4193787;28;20060;-58
2023/03/13 05:23:22;;;;;;;9.23;8.32;;;;;;;;;;4192777;28;20058;-58
2023/03/13 05:25:42;;;;;;;10.63;9.95;;;;;;;;;;4194216;28;20052;-58
2023/03/13 05:28:02;;;;;;;9.73;9.00;;;;;;;;;;4194318;28;20079;-58
2023/03/13 05:30:24;;;;;;;11.25;10.40;;;;;;;;;;4193719;28;20113;-58
2023/03/13 05:32:45;;;;;;;10.77;10.07;;;;;;;;;;4189975;28;20063;-58
2023/03/13 05:35:05;;;;;;;10.38;9.77;;;;;;;;;;4192650;28;20076;-58
2023/03/13 05:37:25;;;;;;;11.70;10.80;;;;;;;;;;4192576;28;20421;-58
2023/03/13 05:39:45;;;;;;;10.70;9.80;;;;;;;;;;4190385;28;20386;-58
2023/03/13 05:42:05;;;;;;;10.93;10.23;;;;;;;;;;4192302;28;20052;-58
2023/03/13 05:44:25;;;;;;;12.27;10.38;;;;;;;;;;4193731;28;20258;-58
2023/03/13 05:46:45;;;;;;;11.48;10.77;;;;;;;;;;4191379;28;20083;-58
2023/03/13 05:49:06;;;;;;;11.23;10.35;;;;;;;;;;4192259;28;20374;-58
2023/03/13 05:51:26;;;;;;;10.88;10.15;;;;;;;;;;4193270;28;20052;-58
2023/03/13 05:53:46;;;;;;;12.95;11.85;;;;;;;;;;4191555;28;20059;-58
2023/03/13 05:56:06;;;;;;;10.90;10.18;;;;;;;;;;4191909;28;20192;-58
2023/03/13 05:58:27;;;;;;;9.45;8.93;;;;;;;;;;4190629;28;20048;-58
2023/03/13 06:00:47;;;;;;;10.73;9.85;;;;;;;;;;4192550;28;20363;-58
2023/03/13 06:03:07;;;;;;;9.68;9.18;;;;;;;;;;4192768;28;20300;-58
2023/03/13 06:05:28;;;;;;;11.85;10.73;;;;;;;;;;4192501;28;20048;-56
2023/03/13 06:07:49;;;;;;;10.07;9.60;;;;;;;;;;4191522;28;20310;-57
2023/03/13 06:10:10;;;;;;;10.50;10.15;;;;;;;;;;4192861;28;20236;-56
2023/03/13 06:12:30;;;;;;;10.38;9.82;;;;;;;;;;4194348;28;20123;-57
2023/03/13 06:14:50;;;;;;;9.27;8.90;;;;;;;;;;4189649;28;20103;-57
2023/03/13 06:17:11;;;;;;;10.45;9.70;;;;;;;;;;4192054;28;20059;-56
2023/03/13 06:19:31;;;;;;;9.63;9.05;;;;;;;;;;4193822;28;20039;-57
2023/03/13 06:21:51;;;;;;;9.88;8.77;;;;;;;;;;4194747;28;20109;-56
2023/03/13 06:24:12;;;;;;;9.18;8.73;;;;;;;;;;4191520;28;20047;-56
2023/03/13 06:26:32;;;;;;;10.73;10.05;;;;;;;;;;4192791;28;20401;-56
2023/03/13 06:28:52;;;;;;;14.43;12.75;;;;;;;;;;4193895;28;20052;-57
2023/03/13 06:31:12;;;;;;;14.10;11.90;;;;;;;;;;4191421;28;20105;-56
2023/03/13 06:33:33;;;;;;;11.60;10.57;;;;;;;;;;4191698;28;20052;-56
2023/03/13 06:35:54;;;;;;;10.05;9.35;;;;;;;;;;4192842;28;20064;-57
2023/03/13 06:38:16;;;;;;;10.07;9.40;;;;;;;;;;4196303;28;20051;-57
2023/03/13 06:40:37;;;;;;;10.02;9.13;;;;;;;;;;4190965;28;20083;-56
2023/03/13 06:42:57;;;;;;;11.18;10.27;;;;;;;;;;4190328;28;20051;-57
2023/03/13 06:45:18;;;;;;;8.23;7.88;;;;;;;;;;4190812;28;20091;-57
2023/03/13 06:47:38;;;;;;;8.82;8.38;;;;;;;;;;4191067;28;20048;-56
2023/03/13 06:49:58;;;;;;;10.82;10.13;;;;;;;;;;4190760;28;20087;-57
2023/03/13 06:52:18;;;;;;;21.88;16.23;;;;;;;;;;4191231;28;20048;-56
2023/03/13 06:54:41;;;;;;;15.75;13.55;;;;;;;;;;4191352;28;20052;-57
2023/03/13 06:57:01;;;;;;;18.38;16.95;;;;;;;;;;4191446;28;20047;-56
2023/03/13 06:59:21;;;;;;;17.90;16.13;;;;;;;;;;4190333;28;20101;-57
2023/03/13 07:01:41;;;;;;;17.27;15.75;;;;;;;;;;4191167;28;20104;-57
2023/03/13 07:04:01;;;;;;;16.05;14.68;;;;;;;;;;4191573;28;20044;-56
2023/03/13 07:06:22;;;;;;;9.15;8.45;;;;;;;;;;4191419;28;20052;-57
2023/03/13 07:08:43;;;;;;;11.88;11.00;;;;;;;;;;4190730;28;20040;-57
2023/03/13 07:11:05;;;;;;;12.27;11.32;;;;;;;;;;4191869;28;20055;-57
2023/03/13 07:13:25;;;;;;;13.85;12.45;;;;;;;;;;4187991;28;20224;-57
2023/03/13 07:15:45;;;;;;;18.85;13.48;;;;;;;;;;4190383;28;20078;-58
2023/03/13 07:18:05;;;;;;;10.68;9.88;;;;;;;;;;4191394;28;20051;-57
2023/03/13 07:20:25;;;;;;;12.65;11.30;;;;;;;;;;4192122;28;20087;-57
2023/03/13 07:22:50;;;;;;;9.95;9.25;;;;;;;;;;4191865;28;20056;-57
2023/03/13 07:25:10;;;;;;;16.13;14.57;;;;;;;;;;4188847;28;20362;-57
2023/03/13 07:27:30;;;;;;;21.00;16.35;;;;;;;;;;4191763;28;20048;-57
2023/03/13 07:29:51;;;;;;;9.82;9.43;;;;;;;;;;4192699;28;20366;-56
2023/03/13 07:32:11;;;;;;;16.95;15.23;;;;;;;;;;4191052;28;20052;-57
2023/03/13 07:34:31;;;;;;;69.28;49.53;;;;;;;;;;4190484;28;20248;-57
2023/03/13 07:36:51;;;;;;;9.95;9.25;;;;;;;;;;4191414;28;20082;-57
2023/03/13 07:39:11;;;;;;;7.45;6.95;;;;;;;;;;4190512;28;20098;-57
2023/03/13 07:41:32;;;;;;;6.80;6.50;;;;;;;;;;4191561;28;20047;-57
2023/03/13 07:43:52;;;;;;;9.98;9.38;;;;;;;;;;4190709;28;20051;-57
2023/03/13 07:46:14;;;;;;;9.18;8.65;;;;;;;;;;4191368;28;20102;-57
2023/03/13 07:48:35;;;;;;;11.68;9.93;;;;;;;;;;4191176;28;20052;-57
2023/03/13 07:50:56;;;;;;;6.60;6.35;;;;;;;;;;4190591;28;20048;-58
2023/03/13 07:53:20;;;;;;;5.70;5.35;;;;;;;;;;4190229;28;20055;-57
2023/03/13 07:55:40;;;;;;;6.25;5.68;;;;;;;;;;4190038;28;20277;-57
2023/03/13 07:58:00;;;;;;;8.65;7.30;;;;;;;;;;4192335;28;20090;-57
2023/03/13 08:00:20;;;;;;;7.32;6.82;;;;;;;;;;4188547;28;20056;-57
2023/03/13 08:02:40;;;;;;;7.93;7.47;;;;;;;;;;4190250;28;20091;-57
2023/03/13 08:05:00;;;;;;;12.20;6.90;;;;;;;;;;4191809;28;20048;-57
2023/03/13 08:07:21;;;;;;;8.23;7.63;;;;;;;;;;4189980;28;20052;-58
2023/03/13 08:09:41;;;;;;;6.35;6.00;;;;;;;;;;4186458;28;20083;-57
2023/03/13 08:12:01;;;;;;;6.07;5.65;;;;;;;;;;4189755;28;20063;-57
2023/03/13 08:14:21;;;;;;;6.30;5.88;;;;;;;;;;4189701;28;20048;-58
2023/03/13 08:16:41;;;;;;;9.38;8.77;;;;;;;;;;4189350;28;20086;-57
2023/03/13 08:19:05;;;;;;;8.43;7.70;;;;;;;;;;4190048;28;20363;-58
2023/03/13 08:21:30;;;;;;;6.35;5.75;;;;;;;;;;4190432;28;20043;-58
2023/03/13 08:23:52;;;;;;;5.18;4.75;;;;;;;;;;4190696;28;20114;-59
2023/03/13 08:26:13;;;;;;;;;;;;;;;;;;4189367;28;20048;-58
2023/03/13 08:28:33;;;;;;;4.30;4.07;;;;;;;;;;4190500;28;20227;-58
2023/03/13 08:30:54;;;;;;;4.18;3.97;;;;;;;;;;4190247;28;20155;-58
2023/03/13 08:33:14;;;;;;;4.32;4.22;;;;;;;;;;4191130;28;20397;-58
2023/03/13 08:35:34;;;;;;;3.63;3.53;;;;;;;;;;4189781;28;20052;-58
2023/03/13 08:37:54;;;;;;;4.68;4.13;;;;;;;;;;4190865;28;20081;-58
2023/03/13 08:40:15;;;;;;;7.00;4.72;;;;;;;;;;4189834;28;20105;-58
2023/03/13 08:42:35;;;;;;;4.80;4.50;;;;;;;;;;4189384;28;20134;-57
2023/03/13 08:44:56;;;;;;;3.92;3.72;;;;;;;;;;4190094;28;20043;-58
2023/03/13 08:47:17;;;;;;;5.47;4.07;;;;;;;;;;4188492;28;20097;-58
2023/03/13 08:49:37;;;;;;;5.75;5.30;;;;;;;;;;4191109;28;20060;-58
2023/03/13 08:51:57;;;;;;;5.78;4.63;;;;;;;;;;4190321;28;20090;-57
2023/03/13 08:54:17;;;;;;;4.05;3.50;;;;;;;;;;4190127;28;20040;-58
2023/03/13 08:56:39;;;;;;;3.88;3.60;;;;;;;;;;4188654;28;20056;-58
2023/03/13 08:59:00;;;;;;;7.13;3.73;;;;;;;;;;4195311;28;20116;-57
2023/03/13 09:01:22;;;;;;;3.50;3.28;;;;;;;;;;4188546;28;20048;-58
2023/03/13 09:03:42;;;;;;;3.53;3.42;;;;;;;;;;4189351;28;20048;-58
2023/03/13 09:06:03;;;;;;;3.88;3.72;;;;;;;;;;4190428;28;20268;-58
2023/03/13 09:08:24;;;;;;;4.53;3.60;;;;;;;;;;4195599;28;20424;-58
2023/03/13 09:10:44;;;;;;;3.50;3.20;;;;;;;;;;4190965;28;20099;-58
2023/03/13 09:13:04;;;;;;;5.75;5.30;;;;;;;;;;4192398;28;20068;-58
2023/03/13 09:15:24;;;;;;;3.38;3.17;;;;;;;;;;4193538;28;20108;-58
2023/03/13 09:17:44;;;;;;;5.07;2.85;;;;;;;;;;4192395;28;20417;-58
2023/03/13 09:20:05;;;;;;;4.25;2.72;;;;;;;;;;4193349;28;20048;-58
2023/03/13 09:22:25;;;;;;;4.30;4.03;;;;;;;;;;4192452;28;20051;-59
2023/03/13 09:24:45;;;;;;;3.33;3.17;;;;;;;;;;4193240;28;20043;-58
2023/03/13 09:27:05;;;;;;;3.90;3.70;;;;;;;;;;4190649;28;20048;-58
2023/03/13 09:29:25;;;;;;;5.70;3.83;;;;;;;;;;4193497;28;20270;-58
2023/03/13 09:31:45;;;;;;;4.53;4.15;;;;;;;;;;4192341;28;20073;-58
2023/03/13 09:34:05;;;;;;;3.47;3.28;;;;;;;;;;4191508;28;20044;-59
2023/03/13 09:36:26;;;;;;;3.22;2.97;;;;;;;;;;4191613;28;20048;-58
2023/03/13 09:38:46;;;;;;;3.05;2.88;;;;;;;;;;4191637;28;20048;-59
2023/03/13 09:41:18;;;;;;;5.63;3.70;;;;;;;;;;4191869;28;20387;-58
2023/03/13 09:44:08;;;;;;;5.85;4.05;;;;;;;;;;4190008;28;20083;-58
2023/03/13 09:46:31;;;;;;;3.90;3.20;;;;;;;;;;4186898;28;20047;-58
2023/03/13 09:48:57;;;;;;;4.70;2.50;;;;;;;;;;4191166;28;20051;-58
2023/03/13 09:51:17;;;;;;;2.95;2.85;;;;;;;;;;4192405;28;20071;-58
2023/03/13 09:53:43;;;;;;;2.25;2.05;;;;;;;;;;4190236;28;20111;-59
2023/03/13 09:56:04;;;;;;;4.00;3.70;;;;;;;;;;4192684;28;20102;-59
2023/03/13 09:58:28;;;;;;;5.95;3.78;;;;;;;;;;4192502;28;20378;-59
2023/03/13 10:00:52;;;;;;;5.68;4.40;;;;;;;;;;4192790;28;20362;-58
2023/03/13 10:03:31;;;;;;;5.28;3.22;;;;;;;;;;4191792;28;20363;-58
2023/03/13 10:05:53;;;;;;;4.82;2.90;;;;;;;;;;4191814;28;20048;-59
2023/03/13 10:08:22;;;;;;;2.90;2.63;;;;;;;;;;4190959;28;20275;-59
2023/03/13 10:10:44;;;;;;;5.32;4.07;;;;;;;;;;4191661;28;20275;-59
2023/03/13 10:13:12;;;;;;;4.50;3.83;;;;;;;;;;4192492;28;20076;-59
2023/03/13 10:15:44;;;;;;;5.38;2.65;;;;;;;;;;4194531;28;20148;-59
2023/03/13 10:18:13;;;;;;;4.13;3.90;;;;;;;;;;4190550;28;20051;-59
2023/03/13 10:20:34;;;;;;;3.20;2.92;;;;;;;;;;4191297;28;20044;-59
2023/03/13 10:22:57;;;;;;;4.50;4.30;;;;;;;;;;4193517;28;20051;-59
2023/03/13 10:25:26;;;;;;;4.00;3.65;;;;;;;;;;4194240;28;20232;-59
2023/03/13 10:27:50;;;;;;;4.57;3.40;;;;;;;;;;4190775;28;20048;-59
2023/03/13 10:30:21;;;;;;;6.38;3.13;;;;;;;;;;4192674;28;20232;-59
2023/03/13 10:32:42;;;;;;;2.85;2.72;;;;;;;;;;4195856;28;20075;-60
2023/03/13 10:35:02;;;;;;;4.15;3.00;;;;;;;;;;4190971;28;20040;-59
2023/03/13 10:37:24;;;;;;;2.90;2.78;;;;;;;;;;4191933;28;20367;-59
2023/03/13 10:39:47;;;;;;;3.30;2.08;;;;;;;;;;4193008;28;20048;-59
2023/03/13 10:42:20;;;;;;;2.38;2.17;;;;;;;;;;4191676;28;20115;-59
2023/03/13 10:44:42;;;;;;;2.38;2.17;;;;;;;;;;4189982;28;20043;-59
2023/03/13 10:47:03;;;;;;;13.68;10.98;;;;;;;;;;4191437;28;20051;-59
2023/03/13 10:49:24;;;;;;;13.55;9.93;;;;;;;;;;4193471;28;20231;-60
2023/03/13 10:51:49;;;;;;;5.35;2.80;;;;;;;;;;4192668;28;20043;-59
2023/03/13 10:54:13;;;;;;;6.93;3.35;;;;;;;;;;4190763;28;20043;-59
2023/03/13 10:56:34;;;;;;;3.45;3.15;;;;;;;;;;4192156;28;20056;-59
2023/03/13 10:58:54;;;;;;;3.50;3.20;;;;;;;;;;4190659;28;20048;-59
2023/03/13 11:01:17;;;;;;;4.03;2.88;;;;;;;;;;4190341;28;20095;-59
2023/03/13 11:03:37;;;;;;;3.47;3.15;;;;;;;;;;4190533;28;20048;-59
2023/03/13 11:05:59;;;;;;;7.18;3.10;;;;;;;;;;4190966;28;20048;-59
2023/03/13 11:08:22;;;;;;;4.23;3.73;;;;;;;;;;4191283;28;20091;-59
2023/03/13 11:10:51;;;;;;;3.70;3.10;;;;;;;;;;4190306;28;20510;-59
2023/03/13 11:13:26;;;;;;;3.42;3.13;;;;;;;;;;4190908;28;20052;-59
2023/03/13 11:15:58;;;;;;;4.45;2.83;;;;;;;;;;4191154;28;20088;-59
2023/03/13 11:18:25;;;;;;;2.67;2.50;;;;;;;;;;4191915;28;20040;-59
2023/03/13 11:20:46;;;;;;;3.88;2.70;;;;;;;;;;4188574;28;20060;-59
2023/03/13 11:23:25;;;;;;;3.20;3.00;;;;;;;;;;4192201;28;20051;-59
2023/03/13 11:25:52;;;;;;;3.10;2.90;;;;;;;;;;4192964;28;20048;-60
2023/03/13 11:28:12;;;;;;;2.70;1.80;;;;;;;;;;4190365;28;20040;-59
2023/03/13 11:30:57;;;;;;;3.47;3.10;;;;;;;;;;4190439;28;20083;-59
2023/03/13 11:33:18;;;;;;;5.57;3.75;;;;;;;;;;4192158;28;20047;-59
2023/03/13 11:35:56;;;;;;;3.72;3.15;;;;;;;;;;4191367;28;20052;-59
2023/03/13 11:38:26;;;;;;;6.72;3.78;;;;;;;;;;4189708;28;20044;-59
2023/03/13 11:41:06;;;;;;;3.42;2.95;;;;;;;;;;4192068;28;20082;-59
2023/03/13 11:43:32;;;;;;;7.63;3.92;;;;;;;;;;4189833;28;20048;-59
2023/03/13 11:45:52;;;;;;;3.60;2.75;;;;;;;;;;4190285;28;20091;-60
2023/03/13 11:48:26;;;;;;;2.50;2.30;;;;;;;;;;4191426;28;20079;-59
2023/03/13 11:50:54;;;;;;;2.85;2.67;;;;;;;;;;4191175;28;20055;-59
2023/03/13 11:53:15;;;;;;;3.78;3.17;;;;;;;;;;4191113;28;20044;-59
2023/03/13 11:55:56;;;;;;;2.53;1.88;;;;;;;;;;4189199;28;20236;-59
2023/03/13 11:58:35;;;;;;;2.67;2.45;;;;;;;;;;4188262;28;20064;-59
2023/03/13 12:01:14;;;;;;;4.35;3.42;;;;;;;;;;4191902;28;20075;-59
2023/03/13 12:03:40;;;;;;;5.18;3.63;;;;;;;;;;4192394;28;20036;-59
2023/03/13 12:06:02;;;;;;;4.85;4.45;;;;;;;;;;4189825;28;20052;-60
2023/03/13 12:08:52;;;;;;;3.55;3.35;;;;;;;;;;4181164;28;20035;-59
2023/03/13 12:11:12;;;;;;;3.90;3.58;;;;;;;;;;4189429;28;20047;-59
2023/03/13 12:13:35;;;;;;;7.25;3.22;;;;;;;;;;4189927;28;20337;-60
2023/03/13 12:16:01;;;;;;;2.75;2.15;;;;;;;;;;4191060;28;20140;-59
2023/03/13 12:18:38;;;;;;;5.07;3.10;;;;;;;;;;4192732;28;20056;-59
2023/03/13 12:21:04;;;;;;;3.80;3.50;;;;;;;;;;4192391;28;20252;-59
2023/03/13 12:23:33;;;;;;;3.25;3.03;;;;;;;;;;4189820;28;20367;-59
2023/03/13 12:25:57;;;;;;;5.13;2.10;;;;;;;;;;4188839;28;20043;-59
2023/03/13 12:28:26;;;;;;;2.75;2.03;;;;;;;;;;4189261;28;20074;-59
2023/03/13 12:31:09;;;;;;;3.53;2.65;;;;;;;;;;4189698;28;20044;-60
2023/03/13 12:33:56;;;;;;;2.67;2.47;;;;;;;;;;4188172;28;20102;-60
2023/03/13 12:36:28;;;;;;;3.63;2.88;;;;;;;;;;4168054;28;20098;-59
2023/03/13 12:38:51;;;;;;;3.20;2.50;;;;;;;;;;4189469;28;20079;-59
2023/03/13 12:41:23;;;;;;;5.57;2.00;;;;;;;;;;4190340;28;20044;-59
2023/03/13 12:43:44;;;;;;;2.87;2.60;;;;;;;;;;4192761;28;20051;-60
2023/03/13 12:46:17;;;;;;;1.40;1.23;;;;;;;;;;4193654;28;20422;-60
2023/03/13 12:48:37;;;;;;;1.23;1.20;;;;;;;;;;4193430;28;20047;-60
2023/03/13 12:50:57;;;;;;;2.65;2.55;;;;;;;;;;4192578;28;20048;-60
2023/03/13 12:53:19;;;;;;;2.45;1.30;;;;;;;;;;4193850;28;20109;-60
2023/03/13 12:55:51;;;;;;;4.20;1.25;;;;;;;;;;4193526;28;20244;-60
2023/03/13 12:58:19;;;;;;;3.83;1.55;;;;;;;;;;4192206;28;20035;-60
2023/03/13 13:00:41;;;;;;;6.72;2.25;;;;;;;;;;4191030;28;20091;-60
2023/03/13 13:03:05;;;;;;;1.45;1.20;;;;;;;;;;4195248;28;20458;-59
2023/03/13 13:05:26;;;;;;;1.48;1.35;;;;;;;;;;4192519;28;20067;-59
2023/03/13 13:07:54;;;;;;;1.30;1.20;;;;;;;;;;4191282;28;20265;-60
2023/03/13 13:10:20;;;;;;;1.55;1.50;;;;;;;;;;4193484;28;20044;-60
2023/03/13 13:12:42;;;;;;;2.50;1.50;;;;;;;;;;4194730;28;20040;-59
2023/03/13 13:15:21;;;;;;;2.08;1.95;;;;;;;;;;4192666;28;20094;-60
2023/03/13 13:18:00;;;;;;;1.10;1.10;;;;;;;;;;4191243;28;20040;-60
2023/03/13 13:20:29;;;;;;;3.08;1.85;;;;;;;;;;4193536;28;20044;-60
2023/03/13 13:22:49;;;;;;;2.15;1.40;;;;;;;;;;4190943;28;20056;-60
2023/03/13 13:25:12;;;;;;;2.25;1.30;;;;;;;;;;4194944;28;20110;-59
2023/03/13 13:27:35;;;;;;;1.52;1.42;;;;;;;;;;4191910;28;20101;-60
2023/03/13 13:29:56;;;;;;;1.20;1.20;;;;;;;;;;4191438;28;20052;-59
2023/03/13 13:32:17;;;;;;;1.33;1.23;;;;;;;;;;4192737;28;20374;-60
2023/03/13 13:34:37;;;;;;;1.60;1.50;;;;;;;;;;4193374;28;20071;-60
2023/03/13 13:36:58;;;;;;;3.22;1.67;;;;;;;;;;4192498;28;20044;-60
2023/03/13 13:39:33;;;;;;;3.35;1.45;;;;;;;;;;4192285;28;20047;-58
2023/03/13 13:41:53;;;;;;;1.38;1.20;;;;;;;;;;4193321;28;20060;-57
2023/03/13 13:44:19;;;;;;;5.28;1.35;;;;;;;;;;4193005;28;20048;-58
2023/03/13 13:46:44;;;;;;;1.73;1.42;;;;;;;;;;4192478;28;20048;-58
2023/03/13 13:49:07;;;;;;;4.88;1.63;;;;;;;;;;4191192;28;20051;-58
2023/03/13 13:51:27;;;;;;;1.70;1.60;;;;;;;;;;4191392;28;20052;-58
2023/03/13 13:53:55;;;;;;;3.17;2.55;;;;;;;;;;4189554;28;20144;-57
2023/03/13 13:56:28;;;;;;;5.95;3.00;;;;;;;;;;4191347;28;20049;-58
2023/03/13 13:58:49;;;;;;;2.67;1.30;;;;;;;;;;4191498;28;20064;-58
2023/03/13 14:01:16;;;;;;;3.05;1.20;;;;;;;;;;4190169;28;20116;-58
2023/03/13 14:03:41;;;;;;;1.52;1.30;;;;;;;;;;4192072;28;20087;-58
2023/03/13 14:06:15;;;;;;;1.48;1.35;;;;;;;;;;4190923;28;20294;-58
2023/03/13 14:08:38;;;;;;;2.72;1.92;;;;;;;;;;4191071;28;20240;-58
2023/03/13 14:11:04;;;;;;;1.70;1.60;;;;;;;;;;4191467;28;20239;-58